createdAt,value
2017-06-24T00:00:29.439Z,0
2017-06-24T00:01:29.438Z,0
2017-06-24T00:02:29.461Z,0
2017-06-24T00:03:29.807Z,0
2017-06-24T00:04:29.467Z,0
2017-06-24T00:05:29.860Z,0
2017-06-24T00:06:29.580Z,0
2017-06-24T00:07:29.928Z,0
2017-06-24T00:08:29.964Z,0
2017-06-24T00:09:30.243Z,0
2017-06-24T00:10:30.034Z,0
2017-06-24T00:11:30.054Z,0
2017-06-24T00:12:30.087Z,0
2017-06-24T00:13:30.103Z,0
2017-06-24T00:14:30.441Z,0
2017-06-24T00:15:30.182Z,0
2017-06-24T00:16:30.189Z,0
2017-06-24T00:17:29.921Z,0
2017-06-24T00:18:29.951Z,0
2017-06-24T00:19:30.541Z,0
2017-06-24T00:20:30.014Z,0
2017-06-24T00:21:30.359Z,0
2017-06-24T00:22:30.074Z,0
2017-06-24T00:23:29.786Z,0
2017-06-24T00:24:30.385Z,0
2017-06-24T00:25:30.490Z,0
2017-06-24T00:26:30.190Z,0
2017-06-24T00:27:30.218Z,0
2017-06-24T00:28:30.580Z,0
2017-06-24T00:29:30.572Z,0
2017-06-24T00:30:30.313Z,0
2017-06-24T00:31:30.658Z,0
2017-06-24T00:32:30.383Z,0
2017-06-24T00:33:30.716Z,0
2017-06-24T00:34:30.684Z,0
2017-06-24T00:35:30.463Z,0
2017-06-24T00:36:30.813Z,0
2017-06-24T00:37:30.535Z,0
2017-06-24T00:38:30.249Z,0
2017-06-24T00:39:31.141Z,0
2017-06-24T00:40:30.929Z,0
2017-06-24T00:41:30.963Z,0
2017-06-24T00:42:30.996Z,0
2017-06-24T00:43:31.023Z,0
2017-06-24T00:44:31.322Z,0
2017-06-24T00:45:30.773Z,0
2017-06-24T00:46:30.802Z,0
2017-06-24T00:47:30.520Z,0
2017-06-24T00:48:31.168Z,0
2017-06-24T00:49:31.197Z,0
2017-06-24T00:50:31.246Z,0
2017-06-24T00:51:31.268Z,0
2017-06-24T00:52:31.299Z,0
2017-06-24T00:53:31.328Z,0
2017-06-24T00:54:31.668Z,0
2017-06-24T00:55:31.077Z,0
2017-06-24T00:56:31.423Z,0
2017-06-24T00:57:31.135Z,0
2017-06-24T00:58:31.460Z,0
2017-06-24T00:59:31.197Z,0
2017-06-24T01:00:31.542Z,0
2017-06-24T01:01:31.566Z,0
2017-06-24T01:02:31.599Z,0
2017-06-24T01:03:31.324Z,0
2017-06-24T01:04:31.660Z,0
2017-06-24T01:05:31.679Z,0
2017-06-24T01:06:30.783Z,0
2017-06-24T01:07:31.743Z,0
2017-06-24T01:08:31.776Z,0
2017-06-24T01:09:30.869Z,0
2017-06-24T01:10:32.090Z,0
2017-06-24T01:11:31.552Z,0
2017-06-24T01:12:31.900Z,0
2017-06-24T01:13:31.618Z,0
2017-06-24T01:14:31.641Z,0
2017-06-24T01:15:31.967Z,0
2017-06-24T01:16:32.031Z,0
2017-06-24T01:17:31.421Z,0
2017-06-24T01:18:31.764Z,0
2017-06-24T01:19:31.790Z,0
2017-06-24T01:20:32.087Z,0
2017-06-24T01:21:31.899Z,0
2017-06-24T01:22:32.200Z,0
2017-06-24T01:23:32.225Z,0
2017-06-24T01:24:32.258Z,0
2017-06-24T01:25:32.597Z,0
2017-06-24T01:26:32.008Z,0
2017-06-24T01:27:31.724Z,0
2017-06-24T01:28:32.376Z,0
2017-06-24T01:29:32.413Z,0
2017-06-24T01:30:32.738Z,0
2017-06-24T01:31:32.158Z,0
2017-06-24T01:32:32.195Z,0
2017-06-24T01:33:32.231Z,0
2017-06-24T01:34:32.570Z,0
2017-06-24T01:35:32.538Z,0
2017-06-24T01:36:32.312Z,0
2017-06-24T01:37:32.337Z,0
2017-06-24T01:38:32.371Z,0
2017-06-24T01:39:32.403Z,0
2017-06-24T01:40:32.690Z,0
2017-06-24T01:41:32.766Z,0
2017-06-24T01:42:32.486Z,0
2017-06-24T01:43:32.838Z,0
2017-06-24T01:44:32.863Z,0
2017-06-24T01:45:32.850Z,0
2017-06-24T01:46:32.615Z,0
2017-06-24T01:47:32.949Z,0
2017-06-24T01:48:32.383Z,0
2017-06-24T01:49:32.386Z,0
2017-06-24T01:50:33.340Z,0
2017-06-24T01:51:32.755Z,0
2017-06-24T01:52:32.779Z,0
2017-06-24T01:53:32.830Z,0
2017-06-24T01:54:32.850Z,0
2017-06-24T01:55:33.467Z,0
2017-06-24T01:56:32.295Z,0
2017-06-24T01:57:33.248Z,0
2017-06-24T01:58:33.285Z,0
2017-06-24T01:59:33.007Z,0
2017-06-24T02:00:33.300Z,0
2017-06-24T02:01:33.048Z,0
2017-06-24T02:02:33.088Z,0
2017-06-24T02:03:33.125Z,0
2017-06-24T02:04:32.839Z,0
2017-06-24T02:05:33.164Z,0
2017-06-24T02:06:33.544Z,0
2017-06-24T02:07:33.570Z,0
2017-06-24T02:08:33.273Z,0
2017-06-24T02:09:33.302Z,0
2017-06-24T02:10:33.650Z,0
2017-06-24T02:11:33.672Z,0
2017-06-24T02:12:33.388Z,0
2017-06-24T02:13:33.735Z,0
2017-06-24T02:14:33.450Z,0
2017-06-24T02:15:34.049Z,0
2017-06-24T02:16:33.516Z,0
2017-06-24T02:17:33.541Z,0
2017-06-24T02:18:33.886Z,0
2017-06-24T02:19:33.607Z,0
2017-06-24T02:20:34.255Z,0
2017-06-24T02:21:33.672Z,0
2017-06-24T02:22:33.695Z,0
2017-06-24T02:23:34.038Z,0
2017-06-24T02:24:33.770Z,0
2017-06-24T02:25:34.395Z,0
2017-06-24T02:26:34.128Z,0
2017-06-24T02:27:33.847Z,0
2017-06-24T02:28:34.189Z,0
2017-06-24T02:29:34.226Z,0
2017-06-24T02:30:34.179Z,0
2017-06-24T02:31:34.293Z,0
2017-06-24T02:32:34.022Z,0
2017-06-24T02:33:34.022Z,0
2017-06-24T02:34:34.058Z,0
2017-06-24T02:35:34.337Z,0
2017-06-24T02:36:33.807Z,0
2017-06-24T02:37:34.149Z,0
2017-06-24T02:38:34.486Z,0
2017-06-24T02:39:34.515Z,0
2017-06-24T02:40:34.491Z,0
2017-06-24T02:41:34.585Z,0
2017-06-24T02:42:34.618Z,0
2017-06-24T02:43:34.334Z,0
2017-06-24T02:44:34.669Z,0
2017-06-24T02:45:34.071Z,0
2017-06-24T02:46:34.421Z,0
2017-06-24T02:47:34.457Z,0
2017-06-24T02:48:34.798Z,0
2017-06-24T02:49:34.506Z,0
2017-06-24T02:50:34.780Z,0
2017-06-24T02:51:34.568Z,0
2017-06-24T02:52:34.914Z,0
2017-06-24T02:53:34.623Z,0
2017-06-24T02:54:34.336Z,0
2017-06-24T02:55:34.384Z,0
2017-06-24T02:56:34.733Z,0
2017-06-24T02:57:35.071Z,0
2017-06-24T02:58:35.091Z,0
2017-06-24T02:59:34.808Z,0
2017-06-24T03:00:34.836Z,0
2017-06-24T03:01:34.549Z,0
2017-06-24T03:02:34.597Z,4
2017-06-24T03:03:34.935Z,4
2017-06-24T03:04:34.969Z,4
2017-06-24T03:05:35.305Z,0
2017-06-24T03:06:35.013Z,4
2017-06-24T03:07:35.054Z,4
2017-06-24T03:08:35.071Z,4
2017-06-24T03:09:35.440Z,8
2017-06-24T03:10:35.456Z,4
2017-06-24T03:11:35.483Z,8
2017-06-24T03:12:35.198Z,8
2017-06-24T03:13:35.547Z,8
2017-06-24T03:14:35.261Z,8
2017-06-24T03:15:35.288Z,12
2017-06-24T03:16:35.317Z,12
2017-06-24T03:17:35.054Z,12
2017-06-24T03:18:35.700Z,16
2017-06-24T03:19:35.739Z,16
2017-06-24T03:20:35.124Z,20
2017-06-24T03:21:36.078Z,20
2017-06-24T03:22:35.815Z,20
2017-06-24T03:23:35.857Z,24
2017-06-24T03:24:35.871Z,28
2017-06-24T03:25:35.279Z,32
2017-06-24T03:26:35.883Z,32
2017-06-24T03:27:35.340Z,36
2017-06-24T03:28:35.984Z,36
2017-06-24T03:29:35.705Z,40
2017-06-24T03:30:35.752Z,44
2017-06-24T03:31:36.063Z,48
2017-06-24T03:32:35.807Z,48
2017-06-24T03:33:35.844Z,48
2017-06-24T03:34:36.163Z,52
2017-06-24T03:35:36.205Z,56
2017-06-24T03:36:36.531Z,60
2017-06-24T03:37:36.252Z,64
2017-06-24T03:38:36.279Z,68
2017-06-24T03:39:36.326Z,72
2017-06-24T03:40:36.362Z,76
2017-06-24T03:41:36.322Z,80
2017-06-24T03:42:36.420Z,84
2017-06-24T03:43:36.441Z,88
2017-06-24T03:44:36.478Z,92
2017-06-24T03:45:36.506Z,96
2017-06-24T03:46:36.478Z,100
2017-06-24T03:47:36.253Z,108
2017-06-24T03:48:36.281Z,112
2017-06-24T03:49:36.305Z,120
2017-06-24T03:50:36.659Z,128
2017-06-24T03:51:36.646Z,140
2017-06-24T03:52:36.716Z,148
2017-06-24T03:53:36.457Z,156
2017-06-24T03:54:36.774Z,164
2017-06-24T03:55:36.471Z,168
2017-06-24T03:56:37.131Z,176
2017-06-24T03:57:36.555Z,184
2017-06-24T03:58:36.888Z,192
2017-06-24T03:59:36.922Z,204
2017-06-24T04:00:36.962Z,208
2017-06-24T04:01:37.283Z,208
2017-06-24T04:02:36.396Z,220
2017-06-24T04:03:36.757Z,228
2017-06-24T04:04:36.765Z,244
2017-06-24T04:05:36.478Z,252
2017-06-24T04:06:37.432Z,252
2017-06-24T04:07:36.540Z,272
2017-06-24T04:08:37.192Z,280
2017-06-24T04:09:36.286Z,288
2017-06-24T04:10:37.251Z,288
2017-06-24T04:11:37.579Z,300
2017-06-24T04:12:37.312Z,308
2017-06-24T04:13:37.350Z,316
2017-06-24T04:14:36.742Z,324
2017-06-24T04:15:37.405Z,332
2017-06-24T04:16:37.731Z,340
2017-06-24T04:17:37.157Z,328
2017-06-24T04:18:37.498Z,340
2017-06-24T04:19:37.208Z,336
2017-06-24T04:20:37.236Z,352
2017-06-24T04:21:37.519Z,364
2017-06-24T04:22:37.607Z,376
2017-06-24T04:23:37.640Z,384
2017-06-24T04:24:37.681Z,388
2017-06-24T04:25:37.710Z,388
2017-06-24T04:26:38.040Z,392
2017-06-24T04:27:37.136Z,400
2017-06-24T04:28:37.784Z,408
2017-06-24T04:29:37.817Z,420
2017-06-24T04:30:37.529Z,436
2017-06-24T04:31:37.823Z,464
2017-06-24T04:32:37.913Z,480
2017-06-24T04:33:37.317Z,500
2017-06-24T04:34:37.674Z,524
2017-06-24T04:35:37.681Z,532
2017-06-24T04:36:37.974Z,524
2017-06-24T04:37:37.738Z,552
2017-06-24T04:38:37.776Z,556
2017-06-24T04:39:37.498Z,556
2017-06-24T04:40:37.527Z,588
2017-06-24T04:41:37.552Z,608
2017-06-24T04:42:37.887Z,612
2017-06-24T04:43:37.618Z,608
2017-06-24T04:44:37.958Z,652
2017-06-24T04:45:38.289Z,652
2017-06-24T04:46:38.019Z,644
2017-06-24T04:47:38.093Z,672
2017-06-24T04:48:37.770Z,668
2017-06-24T04:49:38.427Z,684
2017-06-24T04:50:37.819Z,684
2017-06-24T04:51:38.477Z,700
2017-06-24T04:52:38.488Z,704
2017-06-24T04:53:38.223Z,744
2017-06-24T04:54:38.267Z,736
2017-06-24T04:55:38.601Z,772
2017-06-24T04:56:38.315Z,780
2017-06-24T04:57:38.672Z,800
2017-06-24T04:58:38.698Z,836
2017-06-24T04:59:38.398Z,856
2017-06-24T05:00:38.748Z,824
2017-06-24T05:01:38.468Z,856
2017-06-24T05:02:38.817Z,884
2017-06-24T05:03:38.534Z,876
2017-06-24T05:04:38.552Z,912
2017-06-24T05:05:38.570Z,912
2017-06-24T05:06:38.920Z,904
2017-06-24T05:07:38.949Z,884
2017-06-24T05:08:38.968Z,832
2017-06-24T05:09:38.707Z,864
2017-06-24T05:10:38.414Z,888
2017-06-24T05:11:38.768Z,916
2017-06-24T05:12:38.421Z,932
2017-06-24T05:13:38.506Z,900
2017-06-24T05:14:39.167Z,900
2017-06-24T05:15:39.192Z,928
2017-06-24T05:16:39.228Z,868
2017-06-24T05:17:39.507Z,832
2017-06-24T05:18:38.655Z,760
2017-06-24T05:19:39.299Z,736
2017-06-24T05:20:38.411Z,680
2017-06-24T05:21:39.377Z,704
2017-06-24T05:22:39.660Z,712
2017-06-24T05:23:39.122Z,672
2017-06-24T05:24:39.467Z,664
2017-06-24T05:25:38.867Z,604
2017-06-24T05:26:39.212Z,628
2017-06-24T05:27:39.858Z,536
2017-06-24T05:28:38.954Z,608
2017-06-24T05:29:39.611Z,596
2017-06-24T05:30:39.648Z,616
2017-06-24T05:31:39.668Z,608
2017-06-24T05:32:39.689Z,672
2017-06-24T05:33:39.734Z,608
2017-06-24T05:34:39.763Z,668
2017-06-24T05:35:39.483Z,612
2017-06-24T05:36:39.506Z,616
2017-06-24T05:37:39.838Z,628
2017-06-24T05:38:39.869Z,636
2017-06-24T05:39:39.919Z,620
2017-06-24T05:40:39.624Z,628
2017-06-24T05:41:39.970Z,632
2017-06-24T05:42:40.254Z,636
2017-06-24T05:43:39.723Z,660
2017-06-24T05:44:39.432Z,656
2017-06-24T05:45:40.079Z,664
2017-06-24T05:46:40.125Z,704
2017-06-24T05:47:40.091Z,864
2017-06-24T05:48:40.175Z,1136
2017-06-24T05:49:39.580Z,1404
2017-06-24T05:50:39.925Z,1436
2017-06-24T05:51:39.645Z,1516
2017-06-24T05:52:40.289Z,1568
2017-06-24T05:53:40.011Z,1552
2017-06-24T05:54:40.363Z,1396
2017-06-24T05:55:40.072Z,1492
2017-06-24T05:56:40.417Z,1248
2017-06-24T05:57:40.390Z,928
2017-06-24T05:58:40.166Z,980
2017-06-24T05:59:39.880Z,780
2017-06-24T06:00:40.232Z,744
2017-06-24T06:01:40.586Z,708
2017-06-24T06:02:39.961Z,680
2017-06-24T06:03:40.617Z,748
2017-06-24T06:04:40.660Z,728
2017-06-24T06:05:40.692Z,716
2017-06-24T06:06:40.415Z,724
2017-06-24T06:07:40.374Z,724
2017-06-24T06:08:40.763Z,732
2017-06-24T06:09:40.804Z,724
2017-06-24T06:10:40.528Z,740
2017-06-24T06:11:40.870Z,740
2017-06-24T06:12:41.150Z,744
2017-06-24T06:13:40.619Z,764
2017-06-24T06:14:40.956Z,756
2017-06-24T06:15:40.673Z,760
2017-06-24T06:16:40.705Z,768
2017-06-24T06:17:40.994Z,796
2017-06-24T06:18:41.076Z,800
2017-06-24T06:19:40.792Z,828
2017-06-24T06:20:40.825Z,808
2017-06-24T06:21:40.541Z,784
2017-06-24T06:22:41.445Z,800
2017-06-24T06:23:41.231Z,804
2017-06-24T06:24:40.941Z,792
2017-06-24T06:25:41.281Z,732
2017-06-24T06:26:40.994Z,716
2017-06-24T06:27:41.333Z,728
2017-06-24T06:28:41.375Z,856
2017-06-24T06:29:41.404Z,932
2017-06-24T06:30:41.436Z,944
2017-06-24T06:31:41.163Z,840
2017-06-24T06:32:41.481Z,840
2017-06-24T06:33:41.212Z,796
2017-06-24T06:34:41.545Z,876
2017-06-24T06:35:40.986Z,820
2017-06-24T06:36:41.302Z,796
2017-06-24T06:37:41.590Z,808
2017-06-24T06:38:41.352Z,860
2017-06-24T06:39:41.394Z,820
2017-06-24T06:40:41.424Z,788
2017-06-24T06:41:41.754Z,820
2017-06-24T06:42:41.465Z,836
2017-06-24T06:43:41.509Z,820
2017-06-24T06:44:41.228Z,832
2017-06-24T06:45:41.561Z,844
2017-06-24T06:46:41.594Z,848
2017-06-24T06:47:41.934Z,864
2017-06-24T06:48:41.335Z,776
2017-06-24T06:49:41.989Z,760
2017-06-24T06:50:42.021Z,800
2017-06-24T06:51:42.050Z,804
2017-06-24T06:52:41.462Z,852
2017-06-24T06:53:42.056Z,792
2017-06-24T06:54:41.837Z,852
2017-06-24T06:55:42.174Z,884
2017-06-24T06:56:41.887Z,924
2017-06-24T06:57:41.914Z,860
2017-06-24T06:58:41.941Z,780
2017-06-24T06:59:41.985Z,792
2017-06-24T07:00:42.329Z,856
2017-06-24T07:01:42.353Z,836
2017-06-24T07:02:41.750Z,928
2017-06-24T07:03:42.356Z,936
2017-06-24T07:04:41.513Z,948
2017-06-24T07:05:42.474Z,1048
2017-06-24T07:06:42.188Z,1200
2017-06-24T07:07:42.219Z,936
2017-06-24T07:08:42.852Z,796
2017-06-24T07:09:41.973Z,800
2017-06-24T07:10:42.618Z,852
2017-06-24T07:11:41.722Z,864
2017-06-24T07:12:42.676Z,892
2017-06-24T07:13:43.008Z,904
2017-06-24T07:14:42.121Z,916
2017-06-24T07:15:42.766Z,904
2017-06-24T07:16:42.491Z,868
2017-06-24T07:17:42.531Z,948
2017-06-24T07:18:42.798Z,1152
2017-06-24T07:19:42.582Z,1108
2017-06-24T07:20:42.910Z,1044
2017-06-24T07:21:42.950Z,952
2017-06-24T07:22:42.666Z,1024
2017-06-24T07:23:42.950Z,1180
2017-06-24T07:24:43.037Z,1040
2017-06-24T07:25:43.069Z,852
2017-06-24T07:26:43.104Z,976
2017-06-24T07:27:43.134Z,1008
2017-06-24T07:28:43.458Z,1008
2017-06-24T07:29:43.182Z,1032
2017-06-24T07:30:43.213Z,1044
2017-06-24T07:31:43.239Z,1244
2017-06-24T07:32:42.973Z,1140
2017-06-24T07:33:43.556Z,1128
2017-06-24T07:34:43.340Z,1144
2017-06-24T07:35:43.371Z,1200
2017-06-24T07:36:43.395Z,1668
2017-06-24T07:37:43.464Z,1300
2017-06-24T07:38:43.708Z,2000
2017-06-24T07:39:43.169Z,2440
2017-06-24T07:40:43.519Z,2572
2017-06-24T07:41:43.539Z,2092
2017-06-24T07:42:43.264Z,2060
2017-06-24T07:43:43.632Z,2472
2017-06-24T07:44:43.329Z,2168
2017-06-24T07:45:42.734Z,1668
2017-06-24T07:46:43.696Z,1544
2017-06-24T07:47:43.707Z,1228
2017-06-24T07:48:44.002Z,1272
2017-06-24T07:49:43.786Z,1180
2017-06-24T07:50:43.523Z,1364
2017-06-24T07:51:43.882Z,1052
2017-06-24T07:52:43.248Z,1280
2017-06-24T07:53:43.534Z,1772
2017-06-24T07:54:43.300Z,1544
2017-06-24T07:55:43.971Z,1344
2017-06-24T07:56:43.675Z,1676
2017-06-24T07:57:43.712Z,1684
2017-06-24T07:58:44.337Z,1488
2017-06-24T07:59:43.771Z,1344
2017-06-24T08:00:44.120Z,1172
2017-06-24T08:01:44.149Z,1232
2017-06-24T08:02:44.169Z,1128
2017-06-24T08:03:44.446Z,1548
2017-06-24T08:04:44.226Z,1768
2017-06-24T08:05:43.958Z,1572
2017-06-24T08:06:44.287Z,2252
2017-06-24T08:07:43.697Z,2368
2017-06-24T08:08:44.329Z,2096
2017-06-24T08:09:44.382Z,1768
2017-06-24T08:10:44.087Z,1368
2017-06-24T08:11:44.440Z,1016
2017-06-24T08:12:43.852Z,1196
2017-06-24T08:13:44.742Z,1912
2017-06-24T08:14:44.531Z,2760
2017-06-24T08:15:44.555Z,2352
2017-06-24T08:16:44.581Z,976
2017-06-24T08:17:44.304Z,876
2017-06-24T08:18:44.630Z,1100
2017-06-24T08:19:44.666Z,2040
2017-06-24T08:20:44.405Z,1472
2017-06-24T08:21:44.116Z,1252
2017-06-24T08:22:44.765Z,996
2017-06-24T08:23:45.110Z,1148
2017-06-24T08:24:44.506Z,1144
2017-06-24T08:25:44.863Z,1364
2017-06-24T08:26:44.574Z,2180
2017-06-24T08:27:44.593Z,2792
2017-06-24T08:28:44.885Z,1576
2017-06-24T08:29:44.661Z,1180
2017-06-24T08:30:44.722Z,1152
2017-06-24T08:31:44.712Z,2248
2017-06-24T08:32:44.753Z,2632
2017-06-24T08:33:45.393Z,1500
2017-06-24T08:34:45.122Z,1108
2017-06-24T08:35:44.843Z,1444
2017-06-24T08:36:44.868Z,1816
2017-06-24T08:37:44.581Z,2124
2017-06-24T08:38:45.229Z,2520
2017-06-24T08:39:45.270Z,3536
2017-06-24T08:40:44.992Z,3680
2017-06-24T08:41:45.025Z,3152
2017-06-24T08:42:45.052Z,3288
2017-06-24T08:43:45.669Z,3248
2017-06-24T08:44:44.806Z,2484
2017-06-24T08:45:45.453Z,2176
2017-06-24T08:46:45.153Z,2584
2017-06-24T08:47:45.506Z,2736
2017-06-24T08:48:45.226Z,2796
2017-06-24T08:49:45.252Z,3560
2017-06-24T08:50:45.275Z,3612
2017-06-24T08:51:44.996Z,2988
2017-06-24T08:52:45.341Z,2456
2017-06-24T08:53:45.686Z,3600
2017-06-24T08:54:45.710Z,2988
2017-06-24T08:55:45.774Z,2432
2017-06-24T08:56:45.450Z,2936
2017-06-24T08:57:45.480Z,2684
2017-06-24T08:58:45.524Z,3036
2017-06-24T08:59:45.248Z,4136
2017-06-24T09:00:45.888Z,3696
2017-06-24T09:01:45.928Z,2900
2017-06-24T09:02:45.667Z,2640
2017-06-24T09:03:45.987Z,3876
2017-06-24T09:04:46.011Z,4248
2017-06-24T09:05:46.059Z,4232
2017-06-24T09:06:45.766Z,4644
2017-06-24T09:07:45.481Z,4736
2017-06-24T09:08:46.124Z,4428
2017-06-24T09:09:46.456Z,3436
2017-06-24T09:10:45.869Z,2836
2017-06-24T09:11:46.216Z,3352
2017-06-24T09:12:45.631Z,4020
2017-06-24T09:13:46.272Z,4488
2017-06-24T09:14:46.568Z,4280
2017-06-24T09:15:46.024Z,3072
2017-06-24T09:16:46.065Z,3024
2017-06-24T09:17:45.782Z,3004
2017-06-24T09:18:45.807Z,2920
2017-06-24T09:19:46.780Z,3300
2017-06-24T09:20:46.184Z,3852
2017-06-24T09:21:46.515Z,4232
2017-06-24T09:22:45.927Z,4032
2017-06-24T09:23:46.591Z,3776
2017-06-24T09:24:46.871Z,3848
2017-06-24T09:25:46.341Z,3820
2017-06-24T09:26:46.691Z,4320
2017-06-24T09:27:46.405Z,3816
2017-06-24T09:28:46.739Z,3344
2017-06-24T09:29:47.020Z,3060
2017-06-24T09:30:46.789Z,2544
2017-06-24T09:31:46.516Z,2604
2017-06-24T09:32:46.859Z,3464
2017-06-24T09:33:46.577Z,3456
2017-06-24T09:34:47.164Z,3536
2017-06-24T09:35:46.930Z,3232
2017-06-24T09:36:46.962Z,3344
2017-06-24T09:37:46.694Z,2564
2017-06-24T09:38:46.415Z,2288
2017-06-24T09:39:47.061Z,2488
2017-06-24T09:40:46.774Z,2804
2017-06-24T09:41:47.130Z,3892
2017-06-24T09:42:46.843Z,4096
2017-06-24T09:43:46.871Z,2520
2017-06-24T09:44:47.169Z,1800
2017-06-24T09:45:46.616Z,2348
2017-06-24T09:46:46.971Z,3028
2017-06-24T09:47:46.683Z,4352
2017-06-24T09:48:47.028Z,5004
2017-06-24T09:49:47.001Z,4620
2017-06-24T09:50:47.086Z,4208
2017-06-24T09:51:47.431Z,3544
2017-06-24T09:52:47.147Z,3044
2017-06-24T09:53:47.176Z,3028
2017-06-24T09:54:47.821Z,2976
2017-06-24T09:55:47.239Z,2272
2017-06-24T09:56:47.262Z,2064
2017-06-24T09:57:47.615Z,2216
2017-06-24T09:58:47.643Z,2792
2017-06-24T09:59:47.603Z,3208
2017-06-24T10:00:47.707Z,3708
2017-06-24T10:01:47.419Z,3280
2017-06-24T10:02:47.755Z,3040
2017-06-24T10:03:47.800Z,2428
2017-06-24T10:04:48.065Z,3288
2017-06-24T10:05:47.853Z,4584
2017-06-24T10:06:47.567Z,4612
2017-06-24T10:07:47.904Z,3140
2017-06-24T10:08:47.308Z,3220
2017-06-24T10:09:48.225Z,3780
2017-06-24T10:10:48.010Z,5448
2017-06-24T10:11:48.039Z,4424
2017-06-24T10:12:47.757Z,4444
2017-06-24T10:13:47.465Z,6272
2017-06-24T10:14:48.121Z,5576
2017-06-24T10:15:48.153Z,4712
2017-06-24T10:16:47.871Z,3512
2017-06-24T10:17:47.895Z,2660
2017-06-24T10:18:48.244Z,2932
2017-06-24T10:19:48.211Z,3112
2017-06-24T10:20:48.288Z,3096
2017-06-24T10:21:48.339Z,3212
2017-06-24T10:22:48.370Z,3088
2017-06-24T10:23:48.081Z,2544
2017-06-24T10:24:48.357Z,2380
2017-06-24T10:25:48.155Z,2244
2017-06-24T10:26:48.183Z,2292
2017-06-24T10:27:48.209Z,2500
2017-06-24T10:28:48.537Z,2908
2017-06-24T10:29:48.512Z,3176
2017-06-24T10:30:48.598Z,2660
2017-06-24T10:31:48.339Z,2308
2017-06-24T10:32:48.348Z,2472
2017-06-24T10:33:48.388Z,3100
2017-06-24T10:34:48.399Z,3672
2017-06-24T10:35:48.444Z,3876
2017-06-24T10:36:48.791Z,4260
2017-06-24T10:37:48.821Z,5372
2017-06-24T10:38:48.541Z,5288
2017-06-24T10:39:48.861Z,5016
2017-06-24T10:40:48.911Z,4312
2017-06-24T10:41:48.940Z,4096
2017-06-24T10:42:48.973Z,4208
2017-06-24T10:43:48.988Z,3368
2017-06-24T10:44:48.982Z,2560
2017-06-24T10:45:49.055Z,2604
2017-06-24T10:46:49.092Z,2428
2017-06-24T10:47:49.122Z,2572
2017-06-24T10:48:48.837Z,2636
2017-06-24T10:49:49.430Z,3172
2017-06-24T10:50:49.215Z,3324
2017-06-24T10:51:49.241Z,2324
2017-06-24T10:52:48.657Z,3712
2017-06-24T10:53:49.305Z,3656
2017-06-24T10:54:49.307Z,3660
2017-06-24T10:55:48.747Z,3764
2017-06-24T10:56:49.081Z,2756
2017-06-24T10:57:49.153Z,2592
2017-06-24T10:58:49.145Z,2668
2017-06-24T10:59:49.423Z,2728
2017-06-24T11:00:49.513Z,3524
2017-06-24T11:01:49.544Z,4236
2017-06-24T11:02:48.944Z,4484
2017-06-24T11:03:49.288Z,4824
2017-06-24T11:04:49.883Z,4936
2017-06-24T11:05:49.668Z,4524
2017-06-24T11:06:49.400Z,5664
2017-06-24T11:07:49.132Z,4800
2017-06-24T11:08:49.755Z,3984
2017-06-24T11:09:49.474Z,4140
2017-06-24T11:10:49.820Z,3460
2017-06-24T11:11:49.544Z,5116
2017-06-24T11:12:49.877Z,5216
2017-06-24T11:13:49.602Z,5868
2017-06-24T11:14:49.622Z,4372
2017-06-24T11:15:49.663Z,4368
2017-06-24T11:16:50.009Z,6024
2017-06-24T11:17:49.736Z,5844
2017-06-24T11:18:49.438Z,4920
2017-06-24T11:19:50.091Z,6296
2017-06-24T11:20:50.128Z,7280
2017-06-24T11:21:50.156Z,7548
2017-06-24T11:22:50.179Z,5040
2017-06-24T11:23:50.206Z,5848
2017-06-24T11:24:49.931Z,7460
2017-06-24T11:25:50.267Z,7284
2017-06-24T11:26:50.309Z,6216
2017-06-24T11:27:50.342Z,7124
2017-06-24T11:28:50.366Z,6952
2017-06-24T11:29:50.392Z,9204
2017-06-24T11:30:50.680Z,5920
2017-06-24T11:31:50.465Z,6268
2017-06-24T11:32:50.187Z,6200
2017-06-24T11:33:50.202Z,8976
2017-06-24T11:34:50.546Z,10040
2017-06-24T11:35:50.513Z,7524
2017-06-24T11:36:50.298Z,8648
2017-06-24T11:37:50.344Z,11684
2017-06-24T11:38:50.671Z,8188
2017-06-24T11:39:50.077Z,12960
2017-06-24T11:40:50.721Z,30784
2017-06-24T11:41:50.462Z,4964
2017-06-24T11:42:50.790Z,6164
2017-06-24T11:43:50.196Z,8516
2017-06-24T11:44:50.835Z,30528
2017-06-24T11:45:51.201Z,31552
2017-06-24T11:46:50.913Z,33824
2017-06-24T11:47:50.326Z,7356
2017-06-24T11:48:50.672Z,7848
2017-06-24T11:49:50.704Z,7352
2017-06-24T11:50:50.989Z,37120
2017-06-24T11:51:50.141Z,5440
2017-06-24T11:52:51.110Z,6296
2017-06-24T11:53:50.816Z,19360
2017-06-24T11:54:50.539Z,45120
2017-06-24T11:55:51.440Z,53152
2017-06-24T11:56:50.926Z,6200
2017-06-24T11:57:51.259Z,57408
2017-06-24T11:58:51.304Z,14512
2017-06-24T11:59:51.334Z,44192
2017-06-24T12:00:50.722Z,45504
2017-06-24T12:01:50.762Z,11092
2017-06-24T12:02:51.107Z,44384
2017-06-24T12:03:51.465Z,43200
2017-06-24T12:04:51.489Z,58656
2017-06-24T12:05:51.502Z,5720
2017-06-24T12:06:51.549Z,80448
2017-06-24T12:07:51.576Z,84032
2017-06-24T12:08:51.302Z,84160
2017-06-24T12:09:51.348Z,88992
2017-06-24T12:10:51.924Z,83136
2017-06-24T12:11:51.711Z,70912
2017-06-24T12:12:51.756Z,57536
2017-06-24T12:13:51.463Z,48576
2017-06-24T12:14:51.825Z,49024
2017-06-24T12:15:52.086Z,13604
2017-06-24T12:16:51.874Z,54976
2017-06-24T12:17:51.605Z,56672
2017-06-24T12:18:51.633Z,54688
2017-06-24T12:19:51.365Z,52384
2017-06-24T12:20:52.266Z,47968
2017-06-24T12:21:51.740Z,48320
2017-06-24T12:22:51.764Z,50720
2017-06-24T12:23:51.847Z,52800
2017-06-24T12:24:51.229Z,56608
2017-06-24T12:25:52.483Z,60256
2017-06-24T12:26:51.607Z,59136
2017-06-24T12:27:51.939Z,56288
2017-06-24T12:28:51.680Z,52256
2017-06-24T12:29:52.012Z,48160
2017-06-24T12:30:52.343Z,49216
2017-06-24T12:31:52.074Z,49408
2017-06-24T12:32:52.115Z,54560
2017-06-24T12:33:52.453Z,46080
2017-06-24T12:34:52.186Z,47232
2017-06-24T12:35:52.466Z,83648
2017-06-24T12:36:52.556Z,10700
2017-06-24T12:37:52.591Z,19712
2017-06-24T12:38:52.019Z,55264
2017-06-24T12:39:52.353Z,11680
2017-06-24T12:40:52.949Z,70112
2017-06-24T12:41:52.739Z,81312
2017-06-24T12:42:52.456Z,87968
2017-06-24T12:43:52.810Z,87648
2017-06-24T12:44:52.829Z,88608
2017-06-24T12:45:52.820Z,90144
2017-06-24T12:46:52.609Z,88576
2017-06-24T12:47:52.654Z,83104
2017-06-24T12:48:52.982Z,72896
2017-06-24T12:49:53.018Z,7908
2017-06-24T12:50:52.988Z,11000
2017-06-24T12:51:53.090Z,64544
2017-06-24T12:52:53.122Z,82336
2017-06-24T12:53:53.156Z,85664
2017-06-24T12:54:53.182Z,81824
2017-06-24T12:55:53.211Z,68736
2017-06-24T12:56:53.287Z,57088
2017-06-24T12:57:53.049Z,58304
2017-06-24T12:58:53.338Z,73120
2017-06-24T12:59:53.357Z,80288
2017-06-24T13:00:53.391Z,75744
2017-06-24T13:01:53.123Z,78144
2017-06-24T13:02:53.469Z,83552
2017-06-24T13:03:53.190Z,78816
2017-06-24T13:04:52.922Z,60192
2017-06-24T13:05:53.526Z,51168
2017-06-24T13:06:53.613Z,51584
2017-06-24T13:07:53.018Z,59680
2017-06-24T13:08:53.689Z,66080
2017-06-24T13:09:53.717Z,75776
2017-06-24T13:10:53.393Z,75552
2017-06-24T13:11:53.791Z,72128
2017-06-24T13:12:53.825Z,77664
2017-06-24T13:13:53.869Z,78912
2017-06-24T13:14:53.270Z,70624
2017-06-24T13:15:54.234Z,62496
2017-06-24T13:16:53.660Z,61120
2017-06-24T13:17:53.396Z,66304
2017-06-24T13:18:53.474Z,68608
2017-06-24T13:19:53.762Z,66944
2017-06-24T13:20:53.738Z,68672
2017-06-24T13:21:53.833Z,70816
2017-06-24T13:22:53.883Z,69344
2017-06-24T13:23:54.210Z,68416
2017-06-24T13:24:54.243Z,70240
2017-06-24T13:25:54.283Z,70304
2017-06-24T13:26:54.325Z,68256
2017-06-24T13:27:54.044Z,59520
2017-06-24T13:28:54.386Z,59392
2017-06-24T13:29:54.115Z,64160
2017-06-24T13:30:54.391Z,65632
2017-06-24T13:31:54.181Z,64064
2017-06-24T13:32:54.217Z,76192
2017-06-24T13:33:54.262Z,79808
2017-06-24T13:34:54.603Z,76000
2017-06-24T13:35:54.623Z,65056
2017-06-24T13:36:54.353Z,57920
2017-06-24T13:37:54.398Z,60480
2017-06-24T13:38:54.426Z,46304
2017-06-24T13:39:54.154Z,72576
2017-06-24T13:40:55.158Z,79488
2017-06-24T13:41:54.529Z,73536
2017-06-24T13:42:54.565Z,8212
2017-06-24T13:43:54.610Z,88992